Time;durP1;ratioP1;P1;durP2;ratioP2;P2;SDS_P1;SDS_P2;PMS_P1;PMS_P2;Temp;Humidity;BMP_temperature;BMP_pressure;BME280_temperature;BME280_humidity;BME280_pressure;Samples;Min_cycle;Max_cycle;Signal;HPM_P1;HPM_P2
2023/05/31 00:01:01;;;;;;;8.70;2.90;;;;;;;21.50;73.33;98992.97;4999285;28;20182;-88
2023/05/31 00:03:35;;;;;;;6.80;3.03;;;;;;;21.47;73.36;99000.44;5015372;28;20213;-88
2023/05/31 00:06:08;;;;;;;9.43;3.13;;;;;;;21.50;73.34;98990.31;5016754;28;20190;-88
2023/05/31 00:08:36;;;;;;;4.87;3.00;;;;;;;21.52;73.24;98993.66;4998915;28;20167;-88
2023/05/31 00:11:06;;;;;;;6.63;3.47;;;;;;;21.48;73.03;99007.47;5016407;28;20622;-88
2023/05/31 00:13:41;;;;;;;4.80;2.53;;;;;;;21.41;73.11;99008.06;4998924;28;20175;-89
2023/05/31 00:16:26;;;;;;;;;;;;;;;;;;;;;
2023/05/31 00:19:00;;;;;;;7.20;3.00;;;;;;;21.25;74.37;99005.22;5016472;28;20205;-89
2023/05/31 00:21:43;;;;;;;;;;;;;;;;;;;;;
2023/05/31 00:24:14;;;;;;;6.47;2.80;;;;;;;21.25;74.29;99007.06;5008060;28;20237;-88
2023/05/31 00:27:01;;;;;;;6.23;3.13;;;;;;;21.35;73.92;99007.84;4996554;28;20160;-88
2023/05/31 00:29:37;;;;;;;;;;;;;;;;;;;;;
2023/05/31 00:32:03;;;;;;;6.00;3.40;;;;;;;21.35;73.39;99000.69;4997299;28;20515;-89
2023/05/31 00:34:29;;;;;;;6.90;3.27;;;;;;;21.26;73.37;99003.41;4996116;28;20252;-89
2023/05/31 00:36:54;;;;;;;6.80;3.20;;;;;;;21.20;73.72;99004.03;4978717;28;20188;-88
2023/05/31 00:39:20;;;;;;;6.10;2.83;;;;;;;21.14;73.63;99001.94;4996305;28;20211;-87
2023/05/31 00:41:48;;;;;;;6.70;3.40;;;;;;;21.12;73.43;99012.75;4978866;28;20183;-87
2023/05/31 00:44:23;;;;;;;7.50;3.40;;;;;;;21.07;73.40;99006.22;4995956;28;20654;-87
2023/05/31 00:46:49;;;;;;;5.17;2.70;;;;;;;21.02;73.73;99014.59;4978941;28;20609;-88
2023/05/31 00:49:14;;;;;;;5.27;2.97;;;;;;;20.98;73.76;99009.72;4978656;28;20184;-87
2023/05/31 00:51:40;;;;;;;9.87;3.00;;;;;;;20.97;73.70;99011.56;4996077;28;20666;-88
2023/05/31 00:54:07;;;;;;;5.17;2.97;;;;;;;20.93;73.47;99015.50;4995773;28;20263;-88
2023/05/31 00:56:32;;;;;;;6.77;3.13;;;;;;;20.93;73.39;99007.53;4995981;28;20179;-88
2023/05/31 00:59:02;;;;;;;4.70;2.90;;;;;;;20.94;73.14;99017.16;4995562;28;20606;-87
2023/05/31 01:01:32;;;;;;;7.07;3.17;;;;;;;20.94;72.94;99011.84;4995532;28;20271;-87
2023/05/31 01:04:01;;;;;;;6.23;3.03;;;;;;;20.93;72.61;99017.34;4995865;28;20754;-88
2023/05/31 01:06:31;;;;;;;5.60;2.70;;;;;;;20.92;72.35;99018.31;4978396;28;20191;-88
2023/05/31 01:09:04;;;;;;;7.70;3.17;;;;;;;20.87;72.56;99021.44;4996176;28;20179;-88
2023/05/31 01:11:58;;;;;;;5.17;3.07;;;;;;;20.80;72.93;99023.84;4994474;28;20175;-88
2023/05/31 01:14:43;;;;;;;10.17;3.63;;;;;;;20.77;73.11;99018.81;4996022;28;20195;-87
2023/05/31 01:18:00;;;;;;;6.33;3.47;;;;;;;20.74;73.45;99034.25;4995624;28;20225;-88
2023/05/31 01:20:34;;;;;;;7.90;2.90;;;;;;;20.73;73.99;99032.56;4978054;28;20184;-88
2023/05/31 01:23:28;;;;;;;5.23;2.87;;;;;;;20.83;73.04;99025.38;4995288;28;20528;-88
2023/05/31 01:26:42;;;;;;;5.87;3.10;;;;;;;20.89;72.75;99029.25;4978313;28;20188;-89
2023/05/31 01:29:34;;;;;;;;;;;;;;;;;;;;;
2023/05/31 01:32:31;;;;;;;6.57;3.00;;;;;;;20.77;73.78;99017.97;4995605;28;20168;-88
2023/05/31 01:35:07;;;;;;;;;;;;;;;;;;;;;
2023/05/31 01:41:08;;;;;;;;;;;;;;;;;;;;;
2023/05/31 01:44:21;;;;;;;;;;;;;;;;;;;;;
2023/05/31 01:47:18;;;;;;;8.53;3.43;;;;;;;20.61;75.60;99023.94;4994978;28;20184;-88
2023/05/31 01:50:14;;;;;;;;;;;;;;;;;;;;;
2023/05/31 01:53:23;;;;;;;;;;;;;;;;;;;;;
2023/05/31 01:56:33;;;;;;;9.70;3.23;;;;;;;20.59;75.62;99022.41;4995011;28;20174;-88
2023/05/31 01:58:59;;;;;;;8.40;3.77;;;;;;;20.58;75.21;99020.72;4994373;28;20211;-88
2023/05/31 02:01:34;;;;;;;9.17;3.40;;;;;;;20.52;75.40;99013.34;4977368;28;20188;-88
2023/05/31 02:04:00;;;;;;;14.63;3.33;;;;;;;20.49;75.46;99021.59;4994801;28;20187;-88
2023/05/31 02:06:27;;;;;;;5.40;3.20;;;;;;;20.48;75.42;99019.91;4977630;28;20230;-88
2023/05/31 02:08:53;;;;;;;8.87;3.27;;;;;;;20.49;74.97;99027.75;4994238;28;20250;-88
2023/05/31 02:11:28;;;;;;;8.27;3.40;;;;;;;20.43;74.90;99032.81;4994687;28;20176;-88
2023/05/31 02:14:13;;;;;;;5.87;3.17;;;;;;;20.38;74.95;99029.75;4994936;28;20164;-88
2023/05/31 02:20:17;;;;;;;8.40;3.53;;;;;;;20.41;74.77;99034.81;4915478;28;20575;-88
2023/05/31 02:22:56;;;;;;;7.07;3.50;;;;;;;20.39;74.55;99037.59;4994518;28;20209;-89
2023/05/31 02:25:52;;;;;;;;;;;;;;;;;;;;;
2023/05/31 02:28:51;;;;;;;;;;;;;;;;;;;;;
2023/05/31 02:31:46;;;;;;;;;;;;;;;;;;;;;
2023/05/31 02:34:31;;;;;;;;;;;;;;;;;;;;;
2023/05/31 02:37:32;;;;;;;5.20;3.23;;;;;;;20.29;73.90;99041.25;5014385;28;20173;-88
2023/05/31 02:51:14;;;;;;;;;;;;;;;;;;;;;
2023/05/31 02:54:21;;;;;;;8.77;3.90;;;;;;;20.25;74.58;99051.38;4988293;28;20672;-88
2023/05/31 02:57:47;;;;;;;9.07;3.63;;;;;;;20.27;74.46;99053.88;5012926;28;20202;-89
2023/05/31 03:00:25;;;;;;;;;;;;;;;;;;;;;
2023/05/31 03:03:23;;;;;;;;;;;;;;;;;;;;;
2023/05/31 03:06:04;;;;;;;;;;;;;;;;;;;;;
2023/05/31 03:09:14;;;;;;;;;;;;;;;;;;;;;
2023/05/31 03:11:42;;;;;;;6.47;3.53;;;;;;;20.23;75.60;99062.16;5013463;28;20609;-88
2023/05/31 03:14:51;;;;;;;;;;;;;;;;;;;;;
2023/05/31 03:17:45;;;;;;;6.77;3.57;;;;;;;20.31;75.68;99072.06;5013599;28;20163;-88
2023/05/31 03:20:35;;;;;;;6.27;3.07;;;;;;;20.33;75.87;99075.47;5011179;28;20669;-88
2023/05/31 03:23:14;;;;;;;;;;;;;;;;;;;;;
2023/05/31 03:26:13;;;;;;;;;;;;;;;;;;;;;
2023/05/31 03:28:41;;;;;;;5.67;3.47;;;;;;;20.41;75.70;99077.41;5013059;28;20181;-87
2023/05/31 03:31:54;;;;;;;6.50;3.77;;;;;;;20.41;76.36;99072.06;4996723;28;20545;-89
2023/05/31 03:37:59;;;;;;;5.67;3.20;;;;;;;20.54;76.29;99088.59;5006302;28;20216;-88
2023/05/31 03:40:58;;;;;;;7.13;3.60;;;;;;;20.58;76.39;99088.13;4999530;28;20176;-88
2023/05/31 03:43:47;;;;;;;;;;;;;;;;;;;;;
2023/05/31 03:49:35;;;;;;;7.33;3.93;;;;;;;20.73;77.54;99094.69;5006235;28;20183;-88
2023/05/31 03:52:13;;;;;;;;;;;;;;;;;;;;;
2023/05/31 03:54:54;;;;;;;7.13;4.27;;;;;;;20.77;76.93;99096.06;5017273;28;20497;-87
2023/05/31 04:00:46;;;;;;;;;;;;;;;;;;;;;
2023/05/31 04:03:22;;;;;;;6.87;4.13;;;;;;;20.86;76.64;99098.84;5013267;28;20187;-88
2023/05/31 04:06:15;;;;;;;7.67;4.17;;;;;;;20.88;76.73;99092.41;4998986;28;20175;-88
2023/05/31 04:09:07;;;;;;;;;;;;;;;;;;;;;
2023/05/31 04:12:03;;;;;;;;;;;;;;;;;;;;;
2023/05/31 04:14:44;;;;;;;;;;;;;;;;;;;;;
2023/05/31 04:17:14;;;;;;;7.13;3.97;;;;;;;20.92;76.15;99104.41;5016846;28;20148;-88
2023/05/31 04:19:59;;;;;;;6.03;3.90;;;;;;;20.93;76.65;99106.13;5015946;28;20186;-88
2023/05/31 04:22:30;;;;;;;6.97;3.80;;;;;;;21.01;76.68;99106.22;5016337;28;20166;-88
2023/05/31 04:25:01;;;;;;;8.23;4.53;;;;;;;21.15;76.38;99096.91;5001597;28;20232;-87
2023/05/31 04:27:50;;;;;;;6.57;4.00;;;;;;;21.29;76.03;99102.59;4996175;28;20168;-89
2023/05/31 04:30:33;;;;;;;;;;;;;;;;;;;;;
2023/05/31 04:37:28;;;;;;;;;;;;;;;;;;;;;
2023/05/31 04:40:09;;;;;;;11.43;4.43;;;;;;;21.79;76.46;99091.44;4996454;28;20639;-89
2023/05/31 04:42:40;;;;;;;13.23;4.50;;;;;;;21.87;75.95;99094.22;4996057;28;20196;-88
2023/05/31 04:45:15;;;;;;;13.53;4.80;;;;;;;21.98;75.05;99091.34;4979368;28;20196;-88
2023/05/31 04:47:46;;;;;;;17.73;5.13;;;;;;;21.91;74.35;99088.44;4996508;28;20166;-88
2023/05/31 04:50:12;;;;;;;12.00;4.07;;;;;;;22.12;73.16;99096.09;4979006;28;20172;-88
2023/05/31 04:52:42;;;;;;;6.70;3.70;;;;;;;22.16;71.69;99097.50;4996111;28;20179;-88
2023/05/31 04:55:10;;;;;;;16.90;3.93;;;;;;;22.28;72.41;99101.59;4995765;28;20172;-88
2023/05/31 04:57:35;;;;;;;8.00;3.90;;;;;;;22.58;70.81;99102.97;4995977;28;20199;-87
2023/05/31 05:00:01;;;;;;;7.10;3.63;;;;;;;22.77;70.85;99107.31;4978471;28;20194;-87
2023/05/31 05:02:27;;;;;;;7.43;4.37;;;;;;;22.93;69.46;99112.75;4995833;28;20251;-87
2023/05/31 05:04:52;;;;;;;6.07;3.90;;;;;;;23.17;67.36;99120.88;4978448;28;20176;-88
2023/05/31 05:07:18;;;;;;;6.60;3.93;;;;;;;23.36;66.22;99122.44;4995535;28;20203;-87
2023/05/31 05:09:44;;;;;;;5.40;3.27;;;;;;;23.67;65.97;99119.06;4995769;28;20187;-88
2023/05/31 05:12:10;;;;;;;8.00;3.43;;;;;;;23.85;65.80;99117.09;4995379;28;20171;-88
2023/05/31 05:14:36;;;;;;;5.30;2.97;;;;;;;24.14;66.03;99122.00;4978290;28;20188;-87
2023/05/31 05:17:01;;;;;;;6.00;3.03;;;;;;;24.35;65.35;99130.38;4978146;28;20536;-87
2023/05/31 05:19:27;;;;;;;11.87;3.90;;;;;;;24.70;62.34;99126.50;4994244;28;20537;-87
2023/05/31 05:21:52;;;;;;;8.00;3.67;;;;;;;24.89;61.93;99130.69;4978063;28;20175;-88
2023/05/31 05:24:18;;;;;;;8.90;4.20;;;;;;;24.91;60.47;99126.81;4995089;28;20680;-88
2023/05/31 05:26:44;;;;;;;7.43;3.60;;;;;;;24.94;60.16;99131.00;4995138;28;20176;-86
2023/05/31 05:29:09;;;;;;;6.47;3.13;;;;;;;24.94;60.48;99125.66;4978270;28;20176;-86
2023/05/31 05:31:35;;;;;;;5.93;3.57;;;;;;;24.96;61.21;99127.16;4994986;28;20238;-87
2023/05/31 05:34:00;;;;;;;5.70;3.07;;;;;;;25.05;61.16;99133.34;4994956;28;20180;-87
2023/05/31 05:36:26;;;;;;;8.97;4.37;;;;;;;25.09;60.72;99136.50;4995188;28;20179;-87
2023/05/31 05:38:51;;;;;;;6.47;3.30;;;;;;;24.98;60.72;99133.16;4977752;28;20227;-87
2023/05/31 05:41:17;;;;;;;8.07;3.40;;;;;;;25.03;62.84;99132.66;4977735;28;20639;-87
2023/05/31 05:43:43;;;;;;;7.13;3.33;;;;;;;25.05;62.94;99138.69;4994870;28;20234;-88
2023/05/31 05:46:08;;;;;;;5.87;2.80;;;;;;;25.13;62.06;99138.66;4994885;28;20624;-86
2023/05/31 05:48:34;;;;;;;6.00;2.97;;;;;;;25.27;62.70;99139.78;4994863;28;20164;-87
2023/05/31 05:51:03;;;;;;;5.80;3.00;;;;;;;25.53;61.54;99132.31;4995091;28;20591;-87
2023/05/31 05:53:29;;;;;;;4.43;2.53;;;;;;;25.58;60.93;99135.31;4977626;28;20674;-87
2023/05/31 05:55:57;;;;;;;7.20;2.97;;;;;;;25.75;60.00;99136.91;4995286;28;20254;-87
2023/05/31 05:58:29;;;;;;;4.53;2.43;;;;;;;25.76;60.79;99138.56;4976958;28;20210;-87
2023/05/31 06:00:55;;;;;;;9.07;3.03;;;;;;;25.66;59.52;99143.31;4994658;28;20600;-88
2023/05/31 06:03:23;;;;;;;4.20;2.43;;;;;;;25.72;62.16;99139.94;4977426;28;20175;-87
2023/05/31 06:05:48;;;;;;;7.60;2.92;;;;;;;25.94;60.22;99141.78;4994558;28;20721;-87
2023/05/31 06:08:15;;;;;;;5.60;2.13;;;;;;;26.03;57.60;99145.28;4994818;28;20164;-88
2023/05/31 06:10:40;;;;;;;9.10;3.90;;;;;;;25.96;59.39;99141.63;4994598;28;20254;-87
2023/05/31 06:13:07;;;;;;;5.05;2.55;;;;;;;25.89;59.30;99146.88;4994722;28;20196;-88
2023/05/31 06:15:33;;;;;;;5.63;2.58;;;;;;;25.95;60.73;99146.16;4994418;28;20186;-88
2023/05/31 06:17:58;;;;;;;4.80;2.75;;;;;;;26.12;59.59;99147.78;4994194;28;20286;-88
2023/05/31 06:20:27;;;;;;;5.55;1.95;;;;;;;26.15;60.29;99138.53;4994837;28;20172;-87
2023/05/31 06:22:55;;;;;;;3.58;2.08;;;;;;;26.26;59.56;99151.50;4994609;28;20168;-89
2023/05/31 06:25:24;;;;;;;3.22;1.80;;;;;;;26.47;57.42;99148.16;4994551;28;20183;-88
2023/05/31 06:27:52;;;;;;;6.10;2.58;;;;;;;26.50;55.09;99154.00;4976981;28;20176;-88
2023/05/31 06:30:18;;;;;;;5.75;2.30;;;;;;;26.49;55.83;99151.50;4977227;28;20550;-86
2023/05/31 06:32:44;;;;;;;5.30;2.20;;;;;;;26.32;54.56;99149.97;4994432;28;20172;-89
2023/05/31 06:35:12;;;;;;;6.43;2.07;;;;;;;26.21;55.89;99151.22;4994317;28;20179;-88
2023/05/31 06:37:38;;;;;;;6.80;2.40;;;;;;;26.19;56.68;99146.03;4993929;28;20250;-88
2023/05/31 06:40:06;;;;;;;5.17;2.33;;;;;;;26.22;57.59;99151.06;4993053;28;20179;-88
2023/05/31 06:42:32;;;;;;;5.87;2.67;;;;;;;26.30;57.53;99154.69;4994001;28;20234;-88
2023/05/31 06:44:57;;;;;;;5.88;2.53;;;;;;;26.44;56.63;99153.91;4992994;28;20188;-87
2023/05/31 06:47:23;;;;;;;6.35;2.55;;;;;;;26.59;56.16;99149.41;4997794;28;20245;-88
2023/05/31 06:49:49;;;;;;;6.53;2.80;;;;;;;26.70;57.30;99146.28;5013592;28;20607;-87
2023/05/31 06:52:14;;;;;;;9.13;2.83;;;;;;;26.87;56.82;99144.28;5013328;28;20261;-88
2023/05/31 06:54:42;;;;;;;4.65;2.75;;;;;;;27.11;56.38;99146.72;5013590;28;20218;-88
2023/05/31 06:57:17;;;;;;;4.82;2.72;;;;;;;27.15;54.65;99146.16;5013181;28;20228;-89
2023/05/31 06:59:42;;;;;;;5.60;2.50;;;;;;;27.17;57.48;99152.19;5013222;28;20166;-89
2023/05/31 07:02:13;;;;;;;5.07;2.53;;;;;;;27.34;55.72;99147.44;5013248;28;20189;-90
2023/05/31 07:05:32;;;;;;;;;;;;;;;;;;;;;
2023/05/31 07:08:32;;;;;;;8.75;2.72;;;;;;;27.71;55.30;99149.19;5007204;28;20198;-89
2023/05/31 07:11:12;;;;;;;5.05;3.00;;;;;;;27.89;53.76;99153.13;4994146;28;20274;-90
2023/05/31 07:13:59;;;;;;;;;;;;;;;;;;;;;
2023/05/31 07:16:51;;;;;;;6.47;3.00;;;;;;;27.99;51.73;99152.81;5017366;28;20161;-90
2023/05/31 07:19:32;;;;;;;4.47;2.38;;;;;;;28.01;51.97;99143.53;5000386;28;20224;-89
2023/05/31 07:22:22;;;;;;;;;;;;;;;;;;;;;
2023/05/31 07:24:58;;;;;;;;;;;;;;;;;;;;;
2023/05/31 08:24:50;;;;;;;;;;;;;;;;;;;;;
2023/05/31 08:27:34;;;;;;;4.82;2.72;;;;;;;30.71;44.46;99146.72;6122900;23;20235;-89
2023/05/31 08:30:05;;;;;;;4.50;2.47;;;;;;;30.71;42.39;99138.59;6171785;23;20216;-88
2023/05/31 08:32:58;;;;;;;7.32;2.75;;;;;;;30.69;44.23;99140.66;6167733;23;20200;-89
2023/05/31 08:35:40;;;;;;;4.88;2.13;;;;;;;30.75;41.79;99145.25;6167647;23;20493;-89
2023/05/31 08:41:35;;;;;;;;;;;;;;;;;;;;;
2023/05/31 08:48:11;;;;;;;4.72;2.80;;;;;;;31.22;44.69;99129.78;6176451;23;20605;-89
2023/05/31 08:51:06;;;;;;;6.70;3.28;;;;;;;31.39;42.27;99133.69;6155722;23;20154;-88
2023/05/31 08:54:04;;;;;;;;;;;;;;;;;;;;;
2023/05/31 09:00:10;;;;;;;6.70;2.72;;;;;;;31.65;45.60;99109.22;6109031;23;20221;-89
2023/05/31 09:03:02;;;;;;;7.22;2.85;;;;;;;31.66;44.41;99110.06;6167766;23;20146;-89
2023/05/31 09:05:33;;;;;;;6.82;2.97;;;;;;;31.69;43.64;99102.31;6168408;23;20535;-89
2023/05/31 09:08:09;;;;;;;7.38;3.40;;;;;;;31.76;41.29;99096.88;6167814;23;20150;-88
2023/05/31 09:11:37;;;;;;;;;;;;;;;;;;;;;
2023/05/31 09:14:22;;;;;;;6.72;3.03;;;;;;;31.94;40.72;99103.22;6186742;23;20220;-89
2023/05/31 09:17:18;;;;;;;;;;;;;;;;;;;;;
2023/05/31 09:20:28;;;;;;;;;;;;;;;;;;;;;
2023/05/31 09:23:45;;;;;;;10.85;2.88;;;;;;;31.78;39.48;99102.91;6186478;23;20221;-89
2023/05/31 09:27:00;;;;;;;;;;;;;;;;;;;;;
2023/05/31 09:30:36;;;;;;;;;;;;;;;;;;;;;
2023/05/31 09:33:55;;;;;;;;;;;;;;;;;;;;;
2023/05/31 09:37:08;;;;;;;6.40;3.10;;;;;;;32.35;42.38;99089.19;6186578;23;20209;-89
2023/05/31 09:42:38;;;;;;;;;;;;;;;;;;;;;
2023/05/31 09:45:25;;;;;;;7.32;2.88;;;;;;;32.00;39.57;99077.97;6185551;23;20206;-90
2023/05/31 09:48:20;;;;;;;4.78;2.63;;;;;;;32.01;40.18;99076.09;6186952;23;20177;-88
2023/05/31 09:51:00;;;;;;;7.00;2.88;;;;;;;31.93;36.17;99077.16;6154178;23;20233;-88
2023/05/31 09:53:45;;;;;;;;;;;;;;;;;;;;;
2023/05/31 10:00:03;;;;;;;5.43;2.55;;;;;;;31.11;37.83;99073.56;6186788;23;20143;-89
2023/05/31 10:02:42;;;;;;;;;;;;;;;;;;;;;
2023/05/31 10:05:49;;;;;;;;;;;;;;;;;;;;;
2023/05/31 10:08:55;;;;;;;5.38;2.25;;;;;;;31.23;37.94;99071.88;6187433;23;20534;-89
2023/05/31 10:17:58;;;;;;;5.25;2.00;;;;;;;31.53;39.57;99056.75;6155094;23;20519;-89
2023/05/31 10:21:03;;;;;;;;;;;;;;;;;;;;;
2023/05/31 10:24:31;;;;;;;;;;;;;;;;;;;;;
2023/05/31 10:27:38;;;;;;;3.78;2.47;;;;;;;31.96;37.97;99049.59;6176491;23;20158;-89
2023/05/31 10:33:50;;;;;;;;;;;;;;;;;;;;;
2023/05/31 10:37:13;;;;;;;;;;;;;;;;;;;;;
2023/05/31 10:40:32;;;;;;;;;;;;;;;;;;;;;
2023/05/31 11:09:02;;;;;;;;;;;;;;;;;;;;;
2023/05/31 11:12:25;;;;;;;5.47;2.47;;;;;;;33.46;31.71;99016.56;5613759;25;20248;-90
2023/05/31 11:58:04;;;;;;;5.63;2.70;;;;;;;33.23;29.90;98956.72;5713307;25;20264;-89
2023/05/31 12:00:40;;;;;;;7.95;2.40;;;;;;;33.06;29.34;98953.78;5793310;24;20163;-89
2023/05/31 12:11:01;;;;;;;;;;;;;;;;;;;;;
2023/05/31 12:21:27;;;;;;;4.85;2.42;;;;;;;33.44;28.82;98948.00;5843136;24;20210;-89
2023/05/31 12:24:36;;;;;;;;;;;;;;;;;;;;;
2023/05/31 12:33:14;;;;;;;3.38;1.77;;;;;;;33.18;30.07;98943.78;6076381;23;20161;-88
2023/05/31 12:36:29;;;;;;;4.75;1.67;;;;;;;33.09;30.66;98937.03;6185387;23;20621;-89
2023/05/31 12:39:39;;;;;;;;;;;;;;;;;;;;;
2023/05/31 12:45:48;;;;;;;;;;;;;;;;;;;;;
2023/05/31 12:51:59;;;;;;;;;;;;;;;;;;;;;
2023/05/31 12:55:10;;;;;;;;;;;;;;;;;;;;;
2023/05/31 13:01:05;;;;;;;4.18;1.70;;;;;;;33.07;28.47;98900.28;6171316;23;20170;-89
2023/05/31 13:03:44;;;;;;;7.40;2.30;;;;;;;33.11;30.29;98899.59;6187441;23;20141;-89
2023/05/31 13:06:44;;;;;;;5.95;2.05;;;;;;;33.26;30.54;98897.28;6160975;23;20165;-89
2023/05/31 13:09:50;;;;;;;;;;;;;;;;;;;;;
2023/05/31 13:13:03;;;;;;;4.20;1.70;;;;;;;33.60;29.03;98903.06;6187946;23;20206;-89
2023/05/31 13:19:38;;;;;;;;;;;;;;;;;;;;;
2023/05/31 13:23:09;;;;;;;;;;;;;;;;;;;;;
2023/05/31 13:29:04;;;;;;;9.75;2.42;;;;;;;32.90;29.73;98886.50;6166328;23;20632;-89
2023/05/31 13:31:39;;;;;;;7.45;2.40;;;;;;;32.43;30.12;98893.53;6160647;23;20146;-89
2023/05/31 13:34:20;;;;;;;;;;;;;;;;;;;;;
2023/05/31 13:36:46;;;;;;;4.72;2.00;;;;;;;32.37;30.16;98890.88;6187469;23;20205;-88
2023/05/31 13:39:15;;;;;;;4.53;2.20;;;;;;;32.31;29.88;98889.91;6186567;23;20553;-89
2023/05/31 13:41:45;;;;;;;6.43;2.20;;;;;;;32.25;30.39;98884.56;6161226;23;20237;-89
2023/05/31 13:44:16;;;;;;;4.50;2.47;;;;;;;32.44;30.13;98883.50;6186489;23;20541;-89
2023/05/31 13:47:02;;;;;;;15.85;7.10;;;;;;;32.36;28.67;98887.34;6160586;23;20195;-88
2023/05/31 13:49:38;;;;;;;7.05;2.92;;;;;;;32.22;31.17;98883.13;6187223;23;20269;-88
2023/05/31 13:52:13;;;;;;;4.50;1.98;;;;;;;32.27;31.43;98883.28;6160773;23;20138;-89
2023/05/31 13:54:45;;;;;;;4.57;2.00;;;;;;;32.29;30.29;98874.91;6159963;23;20632;-88
2023/05/31 13:57:12;;;;;;;3.17;1.67;;;;;;;32.20;30.53;98872.50;6186062;23;20138;-88
2023/05/31 14:00:01;;;;;;;;;;;;;;;;;;;;;
2023/05/31 14:02:39;;;;;;;5.32;2.47;;;;;;;31.92;30.71;98888.38;6186731;23;20139;-89
2023/05/31 14:05:07;;;;;;;3.05;1.40;;;;;;;32.11;30.75;98890.13;6160471;23;20138;-88
2023/05/31 14:07:43;;;;;;;;;;;;;;;;;;;;;
2023/05/31 14:10:09;;;;;;;4.18;1.95;;;;;;;32.46;29.82;98878.69;6186433;23;20234;-88
2023/05/31 14:12:38;;;;;;;4.03;1.63;;;;;;;32.64;29.55;98881.41;6186322;23;20201;-89
2023/05/31 14:18:51;;;;;;;3.90;1.90;;;;;;;32.69;31.73;98878.84;6135323;23;20645;-88
2023/05/31 14:21:17;;;;;;;3.25;1.75;;;;;;;32.76;31.11;98871.41;6184875;23;20138;-88
2023/05/31 14:24:20;;;;;;;;;;;;;;;;;;;;;
2023/05/31 14:26:47;;;;;;;6.28;2.45;;;;;;;32.63;30.81;98875.13;6186527;23;20218;-88
2023/05/31 14:29:17;;;;;;;3.63;2.05;;;;;;;32.53;32.19;98874.03;6186785;23;20212;-88
2023/05/31 14:32:00;;;;;;;5.85;1.80;;;;;;;32.36;30.42;98862.09;6185191;23;20151;-89
2023/05/31 14:34:36;;;;;;;6.28;1.52;;;;;;;31.99;31.38;98872.94;6186091;23;20157;-88
2023/05/31 14:37:03;;;;;;;3.20;1.52;;;;;;;31.94;32.36;98869.22;6160036;23;20150;-89
2023/05/31 14:39:33;;;;;;;3.85;2.08;;;;;;;32.13;32.25;98868.19;6161336;23;20269;-88
2023/05/31 14:42:07;;;;;;;5.57;1.90;;;;;;;32.31;32.04;98859.25;6160467;23;20162;-88
2023/05/31 14:44:35;;;;;;;4.20;1.77;;;;;;;32.32;31.69;98856.28;6161061;23;20154;-89
2023/05/31 14:47:05;;;;;;;3.38;1.55;;;;;;;32.16;32.41;98874.00;6159793;23;20174;-88
2023/05/31 14:49:32;;;;;;;11.20;2.25;;;;;;;32.13;32.54;98869.00;6159848;23;20162;-88
2023/05/31 14:52:01;;;;;;;5.65;1.83;;;;;;;32.09;33.91;98870.53;6159633;23;20602;-88
2023/05/31 14:54:28;;;;;;;8.95;2.80;;;;;;;32.10;33.28;98864.03;6159903;23;20186;-88
2023/05/31 14:56:55;;;;;;;5.72;2.05;;;;;;;32.12;32.61;98866.53;6160064;23;20155;-88
2023/05/31 14:59:28;;;;;;;4.25;1.77;;;;;;;32.15;34.61;98866.91;6159263;23;20178;-87
2023/05/31 15:01:57;;;;;;;4.82;1.88;;;;;;;32.26;33.72;98856.38;6185542;23;20542;-88
2023/05/31 15:04:26;;;;;;;4.70;2.15;;;;;;;32.29;33.89;98866.75;6160572;23;20277;-88
2023/05/31 15:06:56;;;;;;;3.17;1.80;;;;;;;32.30;33.71;98863.84;6159551;23;20158;-88
2023/05/31 15:09:22;;;;;;;4.35;1.85;;;;;;;32.33;33.85;98862.56;6187112;23;20542;-88
2023/05/31 15:11:49;;;;;;;4.32;1.70;;;;;;;32.25;34.29;98871.00;6159824;23;20158;-88
2023/05/31 15:14:15;;;;;;;5.90;1.70;;;;;;;32.20;34.62;98863.53;6159546;23;20151;-88
2023/05/31 15:16:42;;;;;;;4.95;2.10;;;;;;;32.22;34.04;98864.97;6185456;23;20166;-88
2023/05/31 15:19:08;;;;;;;4.65;1.60;;;;;;;32.16;34.59;98868.56;6185773;23;20205;-87
2023/05/31 15:21:35;;;;;;;5.43;1.77;;;;;;;32.18;34.04;98865.66;6159574;23;20169;-88
2023/05/31 15:24:02;;;;;;;3.22;1.50;;;;;;;32.19;34.33;98864.56;6185798;23;20150;-88
2023/05/31 15:26:28;;;;;;;3.80;1.58;;;;;;;32.17;34.01;98856.69;6185146;23;20163;-88
2023/05/31 15:28:55;;;;;;;4.25;1.40;;;;;;;32.15;34.30;98864.19;6159601;23;20519;-88
2023/05/31 15:31:22;;;;;;;3.05;1.77;;;;;;;32.09;34.92;98853.44;6185988;23;20212;-88
2023/05/31 15:33:50;;;;;;;5.60;2.05;;;;;;;32.03;34.88;98857.03;6159576;23;20591;-88
2023/05/31 15:36:16;;;;;;;5.35;2.15;;;;;;;31.97;35.46;98857.91;6185622;23;20150;-88
2023/05/31 15:38:43;;;;;;;3.58;1.83;;;;;;;31.90;35.88;98867.97;6185126;23;20181;-88
2023/05/31 15:41:09;;;;;;;5.15;1.92;;;;;;;31.86;35.97;98877.63;6157703;23;20177;-87
2023/05/31 15:43:34;;;;;;;6.10;2.35;;;;;;;31.81;35.89;98875.59;6184165;23;20574;-88
2023/05/31 15:46:00;;;;;;;5.40;2.25;;;;;;;31.77;36.36;98885.19;6158274;23;20165;-88
2023/05/31 15:48:26;;;;;;;4.25;2.22;;;;;;;31.81;35.69;98874.75;6184832;23;20146;-87
2023/05/31 15:50:52;;;;;;;4.40;2.13;;;;;;;31.75;36.10;98878.34;6184518;23;20172;-88
2023/05/31 15:53:17;;;;;;;11.95;2.67;;;;;;;31.72;35.90;98882.31;6158481;23;20154;-88
2023/05/31 15:55:44;;;;;;;5.40;2.13;;;;;;;31.65;36.60;98880.72;6185248;23;20192;-88
2023/05/31 15:58:09;;;;;;;4.82;1.73;;;;;;;31.58;36.33;98886.19;6159244;23;20182;-88
2023/05/31 16:00:35;;;;;;;6.90;2.22;;;;;;;31.58;36.25;98886.19;6159431;23;20195;-88
2023/05/31 16:03:01;;;;;;;2.92;1.60;;;;;;;31.54;36.07;98884.97;6185500;23;20154;-88
2023/05/31 16:05:27;;;;;;;4.00;1.83;;;;;;;31.46;36.56;98893.38;6185323;23;20177;-87
2023/05/31 16:07:53;;;;;;;5.60;2.22;;;;;;;31.51;36.01;98890.84;6185713;23;20153;-88
2023/05/31 16:10:20;;;;;;;4.93;2.50;;;;;;;31.44;35.78;98890.03;6159306;23;20161;-88
2023/05/31 16:12:45;;;;;;;8.95;2.17;;;;;;;31.46;36.18;98891.50;6185363;23;20146;-88
2023/05/31 16:15:10;;;;;;;7.10;2.58;;;;;;;31.43;36.03;98904.63;6159288;23;20154;-87
2023/05/31 16:17:36;;;;;;;6.07;2.80;;;;;;;31.36;36.33;98904.69;6185223;23;20174;-88
2023/05/31 16:20:03;;;;;;;4.57;1.85;;;;;;;31.13;34.71;98904.44;6186238;23;20166;-88
2023/05/31 16:22:29;;;;;;;6.45;2.20;;;;;;;31.11;35.65;98902.94;6187647;23;20146;-88
2023/05/31 16:24:55;;;;;;;6.55;2.22;;;;;;;30.97;35.17;98911.19;6161296;23;20155;-88
2023/05/31 16:27:20;;;;;;;4.18;1.92;;;;;;;30.91;35.72;98909.31;6161209;23;20201;-88
2023/05/31 16:29:45;;;;;;;5.03;2.00;;;;;;;30.78;36.61;98920.19;6187248;23;20234;-88
2023/05/31 16:32:11;;;;;;;5.85;2.40;;;;;;;30.75;36.22;98919.78;6161473;23;20163;-87
2023/05/31 16:34:37;;;;;;;4.95;2.60;;;;;;;30.64;36.67;98915.88;6161188;23;20170;-87
2023/05/31 16:37:03;;;;;;;4.90;2.03;;;;;;;30.56;36.95;98924.22;6187547;23;20150;-87
2023/05/31 16:39:30;;;;;;;3.92;2.00;;;;;;;30.50;36.72;98919.69;6187098;23;20171;-87
2023/05/31 16:41:56;;;;;;;5.18;2.28;;;;;;;30.38;37.06;98927.59;6161180;23;20493;-87
2023/05/31 16:44:21;;;;;;;4.07;1.95;;;;;;;30.28;37.53;98924.47;6187111;23;20161;-87
2023/05/31 16:46:46;;;;;;;4.20;1.85;;;;;;;30.28;38.78;98931.75;6187089;23;20158;-88
2023/05/31 16:49:12;;;;;;;3.88;1.95;;;;;;;30.24;38.17;98931.34;6187073;23;20142;-87
2023/05/31 16:51:37;;;;;;;4.55;1.85;;;;;;;30.10;38.31;98928.88;6187045;23;20551;-87
2023/05/31 16:54:03;;;;;;;4.45;1.70;;;;;;;30.00;39.24;98932.03;6186937;23;20151;-88
2023/05/31 16:56:29;;;;;;;4.72;1.58;;;;;;;29.93;39.00;98933.88;6186955;23;20151;-87
2023/05/31 16:58:54;;;;;;;3.83;1.98;;;;;;;29.87;39.33;98933.91;6160872;23;20186;-87
2023/05/31 17:01:20;;;;;;;4.53;1.73;;;;;;;29.77;40.01;98935.09;6186916;23;20558;-87
2023/05/31 17:03:45;;;;;;;5.03;2.00;;;;;;;29.72;40.41;98937.59;6186900;23;20147;-87
2023/05/31 17:06:11;;;;;;;6.32;2.17;;;;;;;29.66;40.74;98938.44;6187243;23;20189;-87
2023/05/31 17:08:36;;;;;;;12.63;2.20;;;;;;;29.72;40.66;98934.06;6186905;23;20226;-87
2023/05/31 17:11:02;;;;;;;4.88;2.17;;;;;;;29.70;40.31;98936.13;6187525;23;20150;-87
2023/05/31 17:13:27;;;;;;;4.38;2.08;;;;;;;29.63;40.60;98938.00;6187127;23;20147;-87
2023/05/31 17:15:53;;;;;;;5.20;2.10;;;;;;;29.56;40.82;98940.69;6187511;23;20162;-87
2023/05/31 17:18:19;;;;;;;12.20;2.58;;;;;;;29.45;41.26;98929.69;6186533;23;20202;-87
2023/05/31 17:20:44;;;;;;;6.18;2.45;;;;;;;29.27;41.67;98937.56;6160767;23;20178;-86
2023/05/31 17:23:10;;;;;;;5.57;1.77;;;;;;;29.02;41.84;98934.53;6187399;23;20146;-87
2023/05/31 17:25:36;;;;;;;6.35;1.85;;;;;;;28.81;42.56;98943.59;6186725;23;20535;-86
2023/05/31 17:28:01;;;;;;;7.47;1.90;;;;;;;28.56;43.03;98940.53;6186702;23;20567;-87
2023/05/31 17:30:27;;;;;;;4.97;2.38;;;;;;;28.39;43.63;98949.16;6186796;23;20157;-86
2023/05/31 17:32:53;;;;;;;6.07;1.83;;;;;;;28.25;43.26;98950.94;6186673;23;20162;-87
2023/05/31 17:35:19;;;;;;;4.22;1.67;;;;;;;28.08;43.26;98946.88;6186939;23;20222;-87
2023/05/31 17:37:45;;;;;;;4.95;2.45;;;;;;;27.93;43.56;98954.22;6186512;23;20194;-87